createdAt,value
2017-08-30T00:00:22.255Z,99.99
2017-08-30T00:01:22.289Z,99.99
2017-08-30T00:02:22.328Z,99.99
2017-08-30T00:03:22.358Z,99.99
2017-08-30T00:04:22.395Z,99.99
2017-08-30T00:05:22.789Z,99.99
2017-08-30T00:06:22.824Z,99.99
2017-08-30T00:07:22.854Z,99.99
2017-08-30T00:08:22.894Z,99.99
2017-08-30T00:09:22.915Z,99.99
2017-08-30T00:10:22.952Z,99.99
2017-08-30T00:11:23.000Z,99.99
2017-08-30T00:12:23.025Z,99.99
2017-08-30T00:13:22.727Z,99.99
2017-08-30T00:14:23.147Z,99.99
2017-08-30T00:15:23.185Z,99.99
2017-08-30T00:16:23.213Z,99.99
2017-08-30T00:17:23.250Z,99.99
2017-08-30T00:18:23.291Z,99.99
2017-08-30T00:19:23.726Z,99.99
2017-08-30T00:20:23.759Z,99.99
2017-08-30T00:21:23.799Z,99.99
2017-08-30T00:22:23.825Z,99.99
2017-08-30T00:23:23.859Z,99.99
2017-08-30T00:24:23.581Z,99.99
2017-08-30T00:25:23.930Z,99.99
2017-08-30T00:26:23.962Z,99.99
2017-08-30T00:27:24.002Z,99.99
2017-08-30T00:28:24.031Z,99.99
2017-08-30T00:29:24.064Z,99.99
2017-08-30T00:30:24.105Z,99.99
2017-08-30T00:31:24.134Z,99.99
2017-08-30T00:32:24.163Z,99.99
2017-08-30T00:33:23.874Z,99.99
2017-08-30T00:34:24.241Z,99.99
2017-08-30T00:35:24.267Z,99.99
2017-08-30T00:36:24.307Z,99.99
2017-08-30T00:37:24.338Z,99.99
2017-08-30T00:38:24.380Z,99.99
2017-08-30T00:39:24.783Z,99.99
2017-08-30T00:40:24.812Z,99.99
2017-08-30T00:41:24.844Z,99.99
2017-08-30T00:42:24.555Z,99.99
2017-08-30T00:43:24.583Z,99.99
2017-08-30T00:44:24.942Z,99.99
2017-08-30T00:45:24.646Z,99.99
2017-08-30T00:46:25.052Z,99.99
2017-08-30T00:47:25.096Z,99.99
2017-08-30T00:48:25.118Z,99.99
2017-08-30T00:49:25.519Z,99.99
2017-08-30T00:50:25.551Z,99.99
2017-08-30T00:51:25.585Z,99.99
2017-08-30T00:52:25.623Z,99.99
2017-08-30T00:53:26.049Z,99.99
2017-08-30T00:54:26.073Z,99.99
2017-08-30T00:55:26.110Z,99.99
2017-08-30T00:56:25.811Z,99.99
2017-08-30T00:57:26.183Z,99.99
2017-08-30T00:58:26.219Z,99.99
2017-08-30T00:59:26.246Z,99.99
2017-08-30T01:00:26.279Z,99.99
2017-08-30T01:01:26.314Z,99.99
2017-08-30T01:02:26.346Z,99.99
2017-08-30T01:03:26.383Z,99.99
2017-08-30T01:04:26.417Z,99.99
2017-08-30T01:05:26.449Z,99.99
2017-08-30T01:06:26.486Z,99.99
2017-08-30T01:07:26.523Z,99.99
2017-08-30T01:08:26.551Z,99.99
2017-08-30T01:09:26.590Z,99.99
2017-08-30T01:10:26.617Z,99.99
2017-08-30T01:11:26.651Z,99.99
2017-08-30T01:12:26.689Z,99.99
2017-08-30T01:13:26.392Z,99.99
2017-08-30T01:14:27.130Z,99.99
2017-08-30T01:15:27.163Z,99.99
2017-08-30T01:16:27.201Z,99.99
2017-08-30T01:17:27.229Z,99.99
2017-08-30T01:18:26.936Z,99.99
2017-08-30T01:19:26.969Z,99.99
2017-08-30T01:20:27.329Z,99.99
2017-08-30T01:21:27.371Z,99.99
2017-08-30T01:22:27.403Z,99.99
2017-08-30T01:23:27.434Z,99.99
2017-08-30T01:24:27.470Z,99.99
2017-08-30T01:25:27.508Z,99.99
2017-08-30T01:26:27.537Z,99.99
2017-08-30T01:27:27.569Z,99.99
2017-08-30T01:28:27.353Z,99.99
2017-08-30T01:29:27.721Z,99.99
2017-08-30T01:30:27.423Z,99.99
2017-08-30T01:31:27.821Z,99.99
2017-08-30T01:32:27.851Z,99.99
2017-08-30T01:33:27.885Z,99.99
2017-08-30T01:34:27.922Z,99.99
2017-08-30T01:35:27.953Z,99.99
2017-08-30T01:36:27.656Z,99.99
2017-08-30T01:37:28.022Z,99.99
2017-08-30T01:38:28.142Z,99.99
2017-08-30T01:39:28.174Z,99.99
2017-08-30T01:40:28.215Z,99.99
2017-08-30T01:41:28.244Z,99.99
2017-08-30T01:42:28.282Z,99.99
2017-08-30T01:43:28.314Z,99.99
2017-08-30T01:44:28.017Z,99.99
2017-08-30T01:45:28.758Z,99.99
2017-08-30T01:46:28.791Z,99.99
2017-08-30T01:47:28.824Z,99.99
2017-08-30T01:48:28.521Z,99.99
2017-08-30T01:49:29.260Z,99.99
2017-08-30T01:50:29.292Z,99.99
2017-08-30T01:51:29.325Z,99.99
2017-08-30T01:52:29.359Z,99.99
2017-08-30T01:53:29.389Z,99.99
2017-08-30T01:54:29.432Z,99.99
2017-08-30T01:55:29.459Z,99.99
2017-08-30T01:56:29.495Z,99.99
2017-08-30T01:57:29.529Z,99.99
2017-08-30T01:58:29.562Z,99.99
2017-08-30T01:59:29.954Z,99.99
2017-08-30T02:00:29.994Z,99.99
2017-08-30T02:01:30.049Z,99.99
2017-08-30T02:02:29.751Z,99.99
2017-08-30T02:03:30.260Z,99.99
2017-08-30T02:04:30.714Z,99.99
2017-08-30T02:05:30.412Z,99.99
2017-08-30T02:06:30.830Z,99.99
2017-08-30T02:07:30.821Z,99.99
2017-08-30T02:08:30.845Z,99.99
2017-08-30T02:09:30.548Z,99.99
2017-08-30T02:10:30.924Z,99.99
2017-08-30T02:11:30.947Z,99.99
2017-08-30T02:12:30.982Z,99.99
2017-08-30T02:13:31.022Z,99.99
2017-08-30T02:14:30.717Z,99.99
2017-08-30T02:15:31.080Z,99.99
2017-08-30T02:16:31.115Z,99.99
2017-08-30T02:17:31.145Z,99.99
2017-08-30T02:18:31.181Z,99.99
2017-08-30T02:19:31.219Z,99.99
2017-08-30T02:20:30.921Z,99.99
2017-08-30T02:21:30.955Z,99.99
2017-08-30T02:22:31.316Z,99.99
2017-08-30T02:23:31.350Z,99.99
2017-08-30T02:24:31.051Z,99.99
2017-08-30T02:25:31.418Z,99.99
2017-08-30T02:26:31.839Z,99.99
2017-08-30T02:27:31.873Z,99.99
2017-08-30T02:28:32.313Z,99.99
2017-08-30T02:29:32.709Z,99.99
2017-08-30T02:30:32.741Z,99.99
2017-08-30T02:31:32.445Z,99.99
2017-08-30T02:32:32.476Z,99.99
2017-08-30T02:33:32.843Z,99.99
2017-08-30T02:34:32.879Z,99.99
2017-08-30T02:35:32.915Z,99.99
2017-08-30T02:36:32.948Z,99.99
2017-08-30T02:37:32.978Z,99.99
2017-08-30T02:38:33.375Z,99.99
2017-08-30T02:39:33.478Z,99.99
2017-08-30T02:40:33.522Z,99.99
2017-08-30T02:41:33.944Z,99.99
2017-08-30T02:42:33.970Z,99.99
2017-08-30T02:43:34.009Z,99.99
2017-08-30T02:44:34.041Z,99.99
2017-08-30T02:45:34.082Z,99.99
2017-08-30T02:46:34.113Z,99.99
2017-08-30T02:47:34.139Z,99.99
2017-08-30T02:48:34.242Z,99.99
2017-08-30T02:49:33.946Z,99.99
2017-08-30T02:50:34.658Z,99.99
2017-08-30T02:51:34.694Z,99.99
2017-08-30T02:52:34.725Z,99.99
2017-08-30T02:53:34.493Z,99.99
2017-08-30T02:54:34.855Z,99.99
2017-08-30T02:55:34.557Z,99.99
2017-08-30T02:56:34.922Z,99.99
2017-08-30T02:57:34.961Z,99.99
2017-08-30T02:58:34.992Z,99.99
2017-08-30T02:59:35.028Z,99.99
2017-08-30T03:00:35.049Z,99.99
2017-08-30T03:01:34.756Z,99.99
2017-08-30T03:02:35.117Z,99.99
2017-08-30T03:03:35.157Z,99.99
2017-08-30T03:04:35.184Z,99.99
2017-08-30T03:05:34.888Z,99.99
2017-08-30T03:06:35.630Z,99.99
2017-08-30T03:07:36.053Z,99.99
2017-08-30T03:08:35.757Z,99.99
2017-08-30T03:09:36.124Z,99.99
2017-08-30T03:10:36.149Z,99.99
2017-08-30T03:11:36.190Z,99.99
2017-08-30T03:12:35.889Z,99.99
2017-08-30T03:13:36.257Z,99.99
2017-08-30T03:14:36.287Z,99.99
2017-08-30T03:15:36.324Z,99.99
2017-08-30T03:16:36.355Z,99.99
2017-08-30T03:17:36.057Z,99.99
2017-08-30T03:18:36.770Z,99.99
2017-08-30T03:19:36.806Z,99.99
2017-08-30T03:20:36.840Z,99.99
2017-08-30T03:21:36.870Z,99.99
2017-08-30T03:22:36.906Z,99.99
2017-08-30T03:23:36.606Z,99.99
2017-08-30T03:24:36.982Z,99.99
2017-08-30T03:25:37.008Z,99.99
2017-08-30T03:26:37.045Z,99.99
2017-08-30T03:27:37.075Z,99.99
2017-08-30T03:28:37.107Z,99.99
2017-08-30T03:29:37.143Z,99.99
2017-08-30T03:30:37.175Z,99.99
2017-08-30T03:31:37.205Z,99.99
2017-08-30T03:32:37.240Z,99.99
2017-08-30T03:33:37.270Z,99.99
2017-08-30T03:34:36.974Z,99.99
2017-08-30T03:35:37.714Z,99.99
2017-08-30T03:36:37.748Z,99.99
2017-08-30T03:37:37.446Z,99.99
2017-08-30T03:38:37.809Z,99.99
2017-08-30T03:39:37.856Z,99.99
2017-08-30T03:40:38.259Z,99.99
2017-08-30T03:41:38.286Z,99.99
2017-08-30T03:42:38.320Z,99.99
2017-08-30T03:43:38.357Z,99.99
2017-08-30T03:44:38.391Z,99.99
2017-08-30T03:45:38.417Z,99.99
2017-08-30T03:46:38.458Z,99.99
2017-08-30T03:47:38.161Z,99.99
2017-08-30T03:48:38.874Z,99.99
2017-08-30T03:49:38.908Z,99.99
2017-08-30T03:50:38.940Z,99.99
2017-08-30T03:51:38.976Z,99.99
2017-08-30T03:52:39.005Z,99.99
2017-08-30T03:53:39.040Z,99.99
2017-08-30T03:54:38.738Z,99.99
2017-08-30T03:55:39.122Z,99.99
2017-08-30T03:56:39.162Z,99.99
2017-08-30T03:57:39.167Z,99.99
2017-08-30T03:58:39.204Z,99.99
2017-08-30T03:59:39.240Z,99.99
2017-08-30T04:00:38.940Z,99.99
2017-08-30T04:01:38.976Z,99.99
2017-08-30T04:02:39.692Z,99.99
2017-08-30T04:03:39.725Z,99.99
2017-08-30T04:04:39.758Z,99.99
2017-08-30T04:05:39.785Z,99.99
2017-08-30T04:06:39.490Z,99.99
2017-08-30T04:07:39.893Z,99.99
2017-08-30T04:08:39.930Z,99.99
2017-08-30T04:09:39.753Z,99.99
2017-08-30T04:10:39.732Z,99.99
2017-08-30T04:11:40.481Z,99.99
2017-08-30T04:12:40.509Z,99.99
2017-08-30T04:13:40.555Z,99.99
2017-08-30T04:14:40.590Z,99.99
2017-08-30T04:15:40.611Z,99.99
2017-08-30T04:16:40.645Z,99.99
2017-08-30T04:17:40.346Z,99.99
2017-08-30T04:18:40.712Z,99.99
2017-08-30T04:19:40.746Z,99.99
2017-08-30T04:20:40.777Z,99.99
2017-08-30T04:21:40.809Z,99.99
2017-08-30T04:22:40.852Z,99.99
2017-08-30T04:23:40.879Z,99.99
2017-08-30T04:24:41.275Z,99.99
2017-08-30T04:25:41.307Z,99.99
2017-08-30T04:26:41.343Z,99.99
2017-08-30T04:27:41.373Z,99.99
2017-08-30T04:28:41.080Z,99.99
2017-08-30T04:29:41.556Z,99.99
2017-08-30T04:30:41.474Z,99.99
2017-08-30T04:31:41.170Z,99.99
2017-08-30T04:32:41.579Z,99.99
2017-08-30T04:33:42.322Z,99.99
2017-08-30T04:34:42.780Z,99.99
2017-08-30T04:35:42.822Z,99.99
2017-08-30T04:36:42.933Z,99.99
2017-08-30T04:37:43.673Z,99.99
2017-08-30T04:38:43.707Z,99.99
2017-08-30T04:39:43.744Z,99.99
2017-08-30T04:40:43.776Z,99.99
2017-08-30T04:41:43.804Z,99.99
2017-08-30T04:42:43.845Z,99.99
2017-08-30T04:43:43.870Z,99.99
2017-08-30T04:44:43.575Z,99.99
2017-08-30T04:45:43.939Z,99.99
2017-08-30T04:46:43.973Z,99.99
2017-08-30T04:47:44.004Z,99.99
2017-08-30T04:48:44.046Z,99.99
2017-08-30T04:49:44.070Z,99.99
2017-08-30T04:50:44.106Z,99.99
2017-08-30T04:51:44.137Z,99.99
2017-08-30T04:52:44.172Z,99.99
2017-08-30T04:53:44.247Z,99.99
2017-08-30T04:54:44.987Z,99.99
2017-08-30T04:55:45.016Z,99.99
2017-08-30T04:56:45.058Z,99.99
2017-08-30T04:57:44.752Z,99.99
2017-08-30T04:58:45.458Z,99.99
2017-08-30T04:59:45.499Z,99.99
2017-08-30T05:00:45.534Z,99.99
2017-08-30T05:01:45.566Z,99.99
2017-08-30T05:02:45.596Z,99.99
2017-08-30T05:03:45.626Z,99.99
2017-08-30T05:04:45.661Z,99.99
2017-08-30T05:05:45.702Z,99.99
2017-08-30T05:06:45.390Z,99.99
2017-08-30T05:07:45.583Z,99.99
2017-08-30T05:08:45.859Z,99.99
2017-08-30T05:09:45.563Z,99.99
2017-08-30T05:10:45.974Z,99.99
2017-08-30T05:11:45.999Z,99.99
2017-08-30T05:12:46.035Z,99.99
2017-08-30T05:13:45.740Z,99.99
2017-08-30T05:14:45.761Z,99.99
2017-08-30T05:15:46.485Z,99.99
2017-08-30T05:16:46.521Z,99.99
2017-08-30T05:17:46.548Z,99.99
2017-08-30T05:18:46.250Z,99.99
2017-08-30T05:19:46.614Z,99.99
2017-08-30T05:20:46.653Z,99.99
2017-08-30T05:21:46.690Z,99.99
2017-08-30T05:22:46.710Z,99.99
2017-08-30T05:23:46.786Z,99.99
2017-08-30T05:24:47.198Z,99.99
2017-08-30T05:25:47.224Z,99.99
2017-08-30T05:26:47.021Z,99.99
2017-08-30T05:27:47.771Z,99.99
2017-08-30T05:28:47.467Z,99.99
2017-08-30T05:29:47.882Z,99.99
2017-08-30T05:30:48.249Z,99.99
2017-08-30T05:31:48.275Z,99.99
2017-08-30T05:32:48.307Z,99.99
2017-08-30T05:33:48.014Z,99.99
2017-08-30T05:34:48.375Z,99.99
2017-08-30T05:35:48.471Z,99.99
2017-08-30T05:36:48.912Z,99.99
2017-08-30T05:37:48.942Z,99.99
2017-08-30T05:38:48.978Z,99.99
2017-08-30T05:39:49.007Z,99.99
2017-08-30T05:40:48.708Z,99.99
2017-08-30T05:41:49.076Z,99.99
2017-08-30T05:42:49.110Z,99.99
2017-08-30T05:43:49.148Z,99.99
2017-08-30T05:44:49.180Z,99.99
2017-08-30T05:45:48.886Z,99.99
2017-08-30T05:46:49.634Z,99.99
2017-08-30T05:47:50.107Z,99.99
2017-08-30T05:48:50.136Z,99.99
2017-08-30T05:49:49.849Z,99.99
2017-08-30T05:50:50.489Z,99.99
2017-08-30T05:51:50.319Z,99.99
2017-08-30T05:52:50.414Z,99.99
2017-08-30T05:53:50.452Z,99.99
2017-08-30T05:54:50.546Z,99.99
2017-08-30T05:55:50.524Z,99.99
2017-08-30T05:56:50.220Z,99.99
2017-08-30T05:57:50.652Z,99.99
2017-08-30T05:58:50.683Z,99.99
2017-08-30T05:59:50.386Z,99.99
2017-08-30T06:00:50.769Z,99.99
2017-08-30T06:01:51.492Z,99.99
2017-08-30T06:02:51.656Z,99.99
2017-08-30T06:03:51.693Z,99.99
2017-08-30T06:04:51.718Z,99.99
2017-08-30T06:05:51.421Z,99.92
2017-08-30T06:06:51.827Z,99.54
2017-08-30T06:07:52.706Z,98.72
2017-08-30T06:08:52.691Z,97.42
2017-08-30T06:09:52.722Z,95.65
2017-08-30T06:10:52.426Z,94.15
2017-08-30T06:11:52.791Z,91.75
2017-08-30T06:12:52.833Z,88.75
2017-08-30T06:13:52.865Z,88.41
2017-08-30T06:14:52.901Z,84.89
2017-08-30T06:15:52.946Z,82.65
2017-08-30T06:16:53.380Z,80.9
2017-08-30T06:17:53.465Z,77.4
2017-08-30T06:18:53.849Z,75.15
2017-08-30T06:19:54.574Z,72.61
2017-08-30T06:20:54.271Z,70.99
2017-08-30T06:21:54.641Z,70.54
2017-08-30T06:22:54.689Z,69.12
2017-08-30T06:23:54.390Z,67.05
2017-08-30T06:24:54.756Z,66.4
2017-08-30T06:25:54.796Z,64.49
2017-08-30T06:26:54.833Z,63.42
2017-08-30T06:27:54.880Z,63.16
2017-08-30T06:28:54.581Z,62.77
2017-08-30T06:29:54.627Z,62.87
2017-08-30T06:30:55.008Z,62.96
2017-08-30T06:31:55.049Z,62.8
2017-08-30T06:32:55.459Z,61.96
2017-08-30T06:33:55.496Z,61.18
2017-08-30T06:34:55.538Z,61.69
2017-08-30T06:35:55.584Z,60.94
2017-08-30T06:36:55.613Z,59.77
2017-08-30T06:37:55.698Z,58.63
2017-08-30T06:38:56.218Z,58.44
2017-08-30T06:39:56.288Z,58.76
2017-08-30T06:40:56.300Z,58.66
2017-08-30T06:41:56.332Z,57.32
2017-08-30T06:42:56.384Z,56.74
2017-08-30T06:43:56.083Z,56.84
2017-08-30T06:44:56.455Z,56.96
2017-08-30T06:45:56.493Z,55.88
2017-08-30T06:46:56.534Z,55.69
2017-08-30T06:47:56.572Z,55.59
2017-08-30T06:48:56.609Z,55.62
2017-08-30T06:49:57.046Z,55.52
2017-08-30T06:50:56.747Z,54.77
2017-08-30T06:51:57.548Z,54.01
2017-08-30T06:52:57.249Z,54.3
2017-08-30T06:53:57.666Z,54.47
2017-08-30T06:54:57.739Z,53.13
2017-08-30T06:55:58.107Z,53.72
2017-08-30T06:56:58.150Z,54.11
2017-08-30T06:57:58.622Z,54.11
2017-08-30T06:58:58.669Z,53.16
2017-08-30T06:59:58.769Z,52.4
2017-08-30T07:00:59.136Z,52.42
2017-08-30T07:01:59.172Z,50.39
2017-08-30T07:02:59.213Z,49.8
2017-08-30T07:03:59.258Z,50.88
2017-08-30T07:04:59.299Z,51.17
2017-08-30T07:05:59.338Z,50.27
2017-08-30T07:06:59.385Z,51.17
2017-08-30T07:07:59.441Z,50.2
2017-08-30T07:08:59.460Z,49.73
2017-08-30T07:09:59.502Z,50.98
2017-08-30T07:10:59.538Z,51.07
2017-08-30T07:11:59.583Z,50.71
2017-08-30T07:12:59.999Z,49.55
2017-08-30T07:14:00.410Z,49.55
2017-08-30T07:15:00.453Z,49.38
2017-08-30T07:16:00.531Z,49.38
2017-08-30T07:17:00.946Z,49.11
2017-08-30T07:18:00.990Z,48.4
2017-08-30T07:19:01.094Z,47.93
2017-08-30T07:20:01.133Z,49.11
2017-08-30T07:21:01.172Z,48.43
2017-08-30T07:22:01.222Z,49.31
2017-08-30T07:23:01.274Z,48.69
2017-08-30T07:24:01.686Z,48.23
2017-08-30T07:25:01.722Z,48.99
2017-08-30T07:26:01.762Z,48.23
2017-08-30T07:27:01.472Z,48.72
2017-08-30T07:28:02.259Z,47.47
2017-08-30T07:29:02.300Z,48.43
2017-08-30T07:30:02.348Z,48.62
2017-08-30T07:31:02.389Z,49.08
2017-08-30T07:32:02.425Z,49.26
2017-08-30T07:33:02.471Z,49.16
2017-08-30T07:34:02.516Z,49.19
2017-08-30T07:35:02.555Z,49.19
2017-08-30T07:36:02.596Z,49.7
2017-08-30T07:37:02.632Z,48.84
2017-08-30T07:38:02.677Z,48.67
2017-08-30T07:39:03.087Z,47.73
2017-08-30T07:40:03.128Z,46.97
2017-08-30T07:41:03.213Z,45.71
2017-08-30T07:42:03.587Z,46.2
2017-08-30T07:43:04.066Z,46.62
2017-08-30T07:44:03.728Z,46.04
2017-08-30T07:45:04.138Z,45.36
2017-08-30T07:46:04.232Z,44.67
2017-08-30T07:47:04.484Z,45.73
2017-08-30T07:48:04.285Z,45.43
2017-08-30T07:49:04.285Z,45.21
2017-08-30T07:50:04.389Z,46
2017-08-30T07:51:04.367Z,46.4
2017-08-30T07:52:04.401Z,45.71
2017-08-30T07:53:04.110Z,45.59
2017-08-30T07:54:04.529Z,45.59
2017-08-30T07:55:04.629Z,46.18
2017-08-30T07:56:04.375Z,45.96
2017-08-30T07:57:05.099Z,45.96
2017-08-30T07:58:05.514Z,45.96
2017-08-30T07:59:05.560Z,46.67
2017-08-30T08:00:06.112Z,46.4
2017-08-30T08:01:05.306Z,45.63
2017-08-30T08:02:05.732Z,45.24
2017-08-30T08:03:05.787Z,45.43
2017-08-30T08:04:05.821Z,45.83
2017-08-30T08:05:05.864Z,46.2
2017-08-30T08:06:05.912Z,45.71
2017-08-30T08:07:05.995Z,45.71
2017-08-30T08:08:06.870Z,45.63
2017-08-30T08:09:06.903Z,45.16
2017-08-30T08:10:07.213Z,45.06
2017-08-30T08:11:06.621Z,44.79
2017-08-30T08:12:07.375Z,43.73
2017-08-30T08:13:07.095Z,43.45
2017-08-30T08:14:07.138Z,43.35
2017-08-30T08:15:07.929Z,43.94
2017-08-30T08:16:07.636Z,44.22
2017-08-30T08:17:08.031Z,43.45
2017-08-30T08:18:08.058Z,43.47
2017-08-30T08:19:07.776Z,43.49
2017-08-30T08:20:08.150Z,42.58
2017-08-30T08:21:07.862Z,43.07
2017-08-30T08:22:08.595Z,42.97
2017-08-30T08:23:08.307Z,42.58
2017-08-30T08:24:08.745Z,43.05
2017-08-30T08:25:08.862Z,42.76
2017-08-30T08:26:08.908Z,43.45
2017-08-30T08:27:08.950Z,42.58
2017-08-30T08:28:08.721Z,42.3
2017-08-30T08:29:09.419Z,41.63
2017-08-30T08:30:09.465Z,42.22
2017-08-30T08:31:09.189Z,42.05
2017-08-30T08:32:09.934Z,41.67
2017-08-30T08:33:09.653Z,41.49
2017-08-30T08:34:09.759Z,40.52
2017-08-30T08:35:10.133Z,40.05
2017-08-30T08:36:10.177Z,39.65
2017-08-30T08:37:10.227Z,40.03
2017-08-30T08:38:09.939Z,40.23
2017-08-30T08:39:10.057Z,40.52
2017-08-30T08:40:10.216Z,39.83
2017-08-30T08:41:10.507Z,39.45
2017-08-30T08:42:10.539Z,40.05
2017-08-30T08:43:10.645Z,39.97
2017-08-30T08:44:10.689Z,39.17
2017-08-30T08:45:10.739Z,39.57
2017-08-30T08:46:10.784Z,39.47
2017-08-30T08:47:10.834Z,39.07
2017-08-30T08:48:10.875Z,38.79
2017-08-30T08:49:11.350Z,39.07
2017-08-30T08:50:11.367Z,39.25
2017-08-30T08:51:11.085Z,39.25
2017-08-30T08:52:11.850Z,39.45
2017-08-30T08:53:12.269Z,39.07
2017-08-30T08:54:11.980Z,39.39
2017-08-30T08:55:12.086Z,39.23
2017-08-30T08:56:12.466Z,38.77
2017-08-30T08:57:12.520Z,38.59
2017-08-30T08:58:12.559Z,37.04
2017-08-30T08:59:13.008Z,36.67
2017-08-30T09:00:13.053Z,35.89
2017-08-30T09:01:13.103Z,36.87
2017-08-30T09:02:13.151Z,37.73
2017-08-30T09:03:13.197Z,36.64
2017-08-30T09:04:13.258Z,37.02
2017-08-30T09:05:13.368Z,37.1
2017-08-30T09:06:13.483Z,37.49
2017-08-30T09:07:14.328Z,37.2
2017-08-30T09:08:14.297Z,37.41
2017-08-30T09:09:14.019Z,37.23
2017-08-30T09:10:14.769Z,36.34
2017-08-30T09:11:14.899Z,36.83
2017-08-30T09:12:14.949Z,35.96
2017-08-30T09:13:15.061Z,35.97
2017-08-30T09:14:14.774Z,36.25
2017-08-30T09:15:14.828Z,36.44
2017-08-30T09:16:15.265Z,36.34
2017-08-30T09:17:14.987Z,36.8
2017-08-30T09:18:15.378Z,37.88
2017-08-30T09:19:15.094Z,37.88
2017-08-30T09:20:15.135Z,37.77
2017-08-30T09:21:15.896Z,36.5
2017-08-30T09:22:15.948Z,36.3
2017-08-30T09:23:15.992Z,36.9
2017-08-30T09:24:16.049Z,37
2017-08-30T09:25:16.149Z,36.72
2017-08-30T09:26:16.910Z,35.77
2017-08-30T09:27:16.957Z,35.89
2017-08-30T09:28:17.004Z,34.83
2017-08-30T09:29:17.062Z,34.91
2017-08-30T09:30:17.102Z,35.39
2017-08-30T09:31:17.155Z,36.07
2017-08-30T09:32:17.196Z,35.68
2017-08-30T09:33:17.256Z,35.59
2017-08-30T09:34:16.963Z,35.23
2017-08-30T09:35:17.351Z,35.23
2017-08-30T09:36:17.397Z,35.13
2017-08-30T09:37:17.453Z,35.13
2017-08-30T09:38:17.503Z,34.81
2017-08-30T09:39:17.214Z,34.81
2017-08-30T09:40:17.600Z,35.19
2017-08-30T09:41:17.648Z,34.99
2017-08-30T09:42:17.692Z,35.17
2017-08-30T09:43:17.804Z,35.17
2017-08-30T09:44:17.856Z,35.29
2017-08-30T09:45:17.916Z,34.53
2017-08-30T09:46:18.329Z,34.53
2017-08-30T09:47:18.749Z,34.34
2017-08-30T09:48:18.463Z,34.71
2017-08-30T09:49:18.511Z,34.8
2017-08-30T09:50:18.562Z,34.98
2017-08-30T09:51:18.950Z,34.98
2017-08-30T09:52:18.994Z,34.78
2017-08-30T09:53:19.049Z,35.46
2017-08-30T09:54:18.765Z,35.66
2017-08-30T09:55:19.520Z,34.96
2017-08-30T09:56:19.564Z,35.47
2017-08-30T09:57:19.612Z,35.28
2017-08-30T09:58:19.664Z,34.61
2017-08-30T09:59:19.709Z,34.43
2017-08-30T10:00:19.837Z,33.84
2017-08-30T10:01:19.891Z,33.36
2017-08-30T10:02:19.941Z,33.86
2017-08-30T10:03:20.372Z,34.56
2017-08-30T10:04:20.805Z,34.48
2017-08-30T10:05:20.524Z,33.7
2017-08-30T10:06:21.283Z,32.73
2017-08-30T10:07:21.329Z,32.32
2017-08-30T10:08:21.377Z,33.31
2017-08-30T10:09:21.093Z,33.48
2017-08-30T10:10:21.474Z,33.76
2017-08-30T10:11:21.192Z,33.36
2017-08-30T10:12:21.246Z,33.76
2017-08-30T10:13:21.997Z,33.78
2017-08-30T10:14:22.051Z,34.05
2017-08-30T10:15:22.103Z,33.54
2017-08-30T10:16:21.815Z,33.54
2017-08-30T10:17:22.576Z,33.95
2017-08-30T10:18:22.615Z,34.34
2017-08-30T10:19:22.668Z,34.03
2017-08-30T10:20:22.711Z,33.65
2017-08-30T10:21:22.425Z,33.95
2017-08-30T10:22:22.471Z,33.53
2017-08-30T10:23:22.924Z,33.93
2017-08-30T10:24:23.001Z,33.63
2017-08-30T10:25:23.398Z,34.33
2017-08-30T10:26:23.435Z,33.75
2017-08-30T10:27:23.477Z,33.65
2017-08-30T10:28:23.522Z,34.91
2017-08-30T10:29:23.574Z,34.5
2017-08-30T10:30:23.673Z,34.88
2017-08-30T10:31:23.721Z,34.5
2017-08-30T10:32:24.101Z,34.56
2017-08-30T10:33:24.517Z,34.86
2017-08-30T10:34:24.233Z,34.76
2017-08-30T10:35:24.605Z,35.26
2017-08-30T10:36:24.928Z,34.78
2017-08-30T10:37:24.365Z,34.88
2017-08-30T10:38:25.116Z,34.5
2017-08-30T10:39:25.165Z,34.3
2017-08-30T10:40:25.207Z,34.58
2017-08-30T10:41:25.249Z,34.76
2017-08-30T10:42:24.959Z,34.94
2017-08-30T10:43:25.341Z,35.54
2017-08-30T10:44:25.380Z,35.06
2017-08-30T10:45:25.429Z,34.88
2017-08-30T10:46:25.474Z,34.5
2017-08-30T10:47:25.515Z,34
2017-08-30T10:48:25.229Z,34.2
2017-08-30T10:49:25.331Z,34.38
2017-08-30T10:50:26.088Z,34.48
2017-08-30T10:51:26.132Z,34.51
2017-08-30T10:52:26.175Z,33.65
2017-08-30T10:53:26.217Z,33.25
2017-08-30T10:54:26.561Z,32.56
2017-08-30T10:55:26.308Z,33.28
2017-08-30T10:56:26.350Z,33.26
2017-08-30T10:57:26.392Z,33.36
2017-08-30T10:58:26.435Z,33.76
2017-08-30T10:59:26.478Z,33.38
2017-08-30T11:00:26.525Z,33.28
2017-08-30T11:01:26.573Z,33.08
2017-08-30T11:02:26.606Z,33.39
2017-08-30T11:03:26.652Z,33.31
2017-08-30T11:04:26.693Z,33.41
2017-08-30T11:05:26.809Z,32.32
2017-08-30T11:06:27.240Z,32.43
2017-08-30T11:07:26.959Z,32.29
2017-08-30T11:08:26.994Z,33.04
2017-08-30T11:09:27.128Z,33.9
2017-08-30T11:10:27.515Z,34.27
2017-08-30T11:11:27.680Z,35.03
2017-08-30T11:12:28.426Z,34.91
2017-08-30T11:13:28.465Z,34.91
2017-08-30T11:14:28.509Z,35.21
2017-08-30T11:15:28.551Z,34.84
2017-08-30T11:16:28.598Z,34.28
2017-08-30T11:17:28.636Z,34.38
2017-08-30T11:18:28.684Z,34.48
2017-08-30T11:19:29.099Z,33.88
2017-08-30T11:20:29.153Z,33.98
2017-08-30T11:21:29.188Z,33.88
2017-08-30T11:22:29.237Z,34.15
2017-08-30T11:23:29.273Z,34.25
2017-08-30T11:24:29.304Z,34.16
2017-08-30T11:25:29.753Z,33.98
2017-08-30T11:26:29.793Z,33.58
2017-08-30T11:27:29.495Z,34.16
2017-08-30T11:28:29.876Z,34.36
2017-08-30T11:29:29.918Z,33.97
2017-08-30T11:30:29.960Z,33.85
2017-08-30T11:31:29.998Z,34.81
2017-08-30T11:32:30.042Z,35.46
2017-08-30T11:33:29.753Z,36.1
2017-08-30T11:34:30.189Z,36.79
2017-08-30T11:35:30.230Z,36.77
2017-08-30T11:36:29.945Z,36.6
2017-08-30T11:37:30.345Z,36.79
2017-08-30T11:38:30.775Z,36.81
2017-08-30T11:39:30.893Z,36.3
2017-08-30T11:40:30.602Z,36.66
2017-08-30T11:41:31.016Z,37.53
2017-08-30T11:42:31.049Z,38.7
2017-08-30T11:43:31.099Z,38.88
2017-08-30T11:44:31.140Z,39.16
2017-08-30T11:45:30.848Z,39.16
2017-08-30T11:46:31.217Z,39.14
2017-08-30T11:47:31.265Z,40.01
2017-08-30T11:48:30.976Z,40.94
2017-08-30T11:49:31.341Z,42.85
2017-08-30T11:50:31.390Z,43.57
2017-08-30T11:51:31.094Z,44.62
2017-08-30T11:52:31.518Z,45.73
2017-08-30T11:53:31.889Z,46.49
2017-08-30T11:54:32.005Z,47.6
2017-08-30T11:55:32.907Z,48.55
2017-08-30T11:56:32.951Z,49.02
2017-08-30T11:57:32.989Z,49.29
2017-08-30T11:58:33.047Z,49.85
2017-08-30T11:59:33.081Z,50.15
2017-08-30T12:00:33.111Z,50.32
2017-08-30T12:01:33.153Z,50.12
2017-08-30T12:02:33.200Z,50.88
2017-08-30T12:03:33.237Z,51.17
2017-08-30T12:04:33.289Z,51.17
2017-08-30T12:05:33.323Z,51.63
2017-08-30T12:06:33.361Z,52.02
2017-08-30T12:07:33.837Z,52.41
2017-08-30T12:08:34.337Z,52.58
2017-08-30T12:09:34.047Z,52.8
2017-08-30T12:10:34.486Z,53.19
2017-08-30T12:11:34.895Z,52.31
2017-08-30T12:12:34.930Z,52.22
2017-08-30T12:13:34.973Z,52.61
2017-08-30T12:14:35.019Z,52.7
2017-08-30T12:15:35.057Z,53.39
2017-08-30T12:16:35.141Z,53.19
2017-08-30T12:17:35.138Z,53.39
2017-08-30T12:18:35.544Z,53.39
2017-08-30T12:19:35.600Z,52.51
2017-08-30T12:20:35.633Z,52.61
2017-08-30T12:21:35.677Z,52.51
2017-08-30T12:22:35.717Z,53.19
2017-08-30T12:23:35.751Z,52.97
2017-08-30T12:24:35.793Z,53.85
2017-08-30T12:25:35.832Z,53.56
2017-08-30T12:26:35.543Z,53.66
2017-08-30T12:27:35.968Z,54.05
2017-08-30T12:28:36.370Z,54.14
2017-08-30T12:29:36.744Z,54.05
2017-08-30T12:30:36.785Z,54.34
2017-08-30T12:31:36.826Z,54.05
2017-08-30T12:32:36.862Z,53.46
2017-08-30T12:33:36.903Z,53.36
2017-08-30T12:34:36.944Z,53.36
2017-08-30T12:35:36.658Z,53.17
2017-08-30T12:36:37.029Z,53.07
2017-08-30T12:37:37.074Z,52.78
2017-08-30T12:38:37.100Z,53.36
2017-08-30T12:39:37.145Z,52.58
2017-08-30T12:40:37.189Z,53.75
2017-08-30T12:41:37.601Z,53.07
2017-08-30T12:42:37.637Z,53.36
2017-08-30T12:43:37.685Z,53.36
2017-08-30T12:44:37.721Z,53.56
2017-08-30T12:45:37.761Z,53.07
2017-08-30T12:46:37.803Z,53.17
2017-08-30T12:47:37.842Z,53.07
2017-08-30T12:48:38.325Z,53.46
2017-08-30T12:49:38.335Z,53.46
2017-08-30T12:50:38.506Z,53.95
2017-08-30T12:51:38.888Z,54.05
2017-08-30T12:52:39.025Z,53.75
2017-08-30T12:53:39.061Z,52.97
2017-08-30T12:54:39.100Z,53.56
2017-08-30T12:55:39.212Z,53.36